Time;durP1;ratioP1;P1;durP2;ratioP2;P2;SDS_P1;SDS_P2;PMS_P1;PMS_P2;Temp;Humidity;BMP_temperature;BMP_pressure;BME280_temperature;BME280_humidity;BME280_pressure;Samples;Min_cycle;Max_cycle;Signal;HPM_P1;HPM_P2
2023/12/16 00:00:44;;;;;;;20.33;9.27;;;;;;;7.89;96.86;103225.66;4953490;29;20062;-81
2023/12/16 00:03:11;;;;;;;22.70;9.38;;;;;;;7.89;96.99;103219.59;4950655;29;20146;-82
2023/12/16 00:05:37;;;;;;;28.05;9.27;;;;;;;7.83;96.89;103218.13;4943470;29;20130;-80
2023/12/16 00:08:04;;;;;;;21.92;9.77;;;;;;;7.92;96.86;103211.63;4949256;29;20060;-81
2023/12/16 00:10:34;;;;;;;17.83;9.10;;;;;;;7.88;97.04;103217.91;4942771;29;20086;-80
2023/12/16 00:13:03;;;;;;;20.63;9.27;;;;;;;7.90;96.53;103213.47;4943689;29;20407;-80
2023/12/16 00:15:31;;;;;;;20.65;8.23;;;;;;;7.88;96.37;103203.13;4944194;29;20044;-79
2023/12/16 00:17:57;;;;;;;18.55;7.95;;;;;;;7.75;96.29;103216.81;4954131;29;20075;-79
2023/12/16 00:20:26;;;;;;;20.83;8.68;;;;;;;7.79;96.12;103203.56;4942822;29;20078;-80
2023/12/16 00:22:53;;;;;;;23.48;8.30;;;;;;;7.85;95.53;103205.03;4936211;29;20529;-81
2023/12/16 00:25:20;;;;;;;20.30;8.43;;;;;;;7.83;95.43;103194.69;4945054;29;20108;-81
2023/12/16 00:27:49;;;;;;;21.30;8.45;;;;;;;7.99;95.09;103202.59;4944110;29;20142;-82
2023/12/16 00:30:16;;;;;;;23.17;8.40;;;;;;;7.95;94.49;103198.44;4943330;29;20050;-81
2023/12/16 00:32:44;;;;;;;23.55;8.50;;;;;;;7.86;94.35;103189.31;4942545;29;20071;-81
2023/12/16 00:35:10;;;;;;;22.70;8.48;;;;;;;7.93;94.06;103195.06;4944132;29;20047;-80
2023/12/16 00:37:37;;;;;;;19.33;8.55;;;;;;;7.87;94.21;103192.75;4943878;29;20120;-81
2023/12/16 00:40:08;;;;;;;18.75;7.47;;;;;;;7.84;93.95;103185.09;4947250;29;20127;-81
2023/12/16 00:42:37;;;;;;;14.75;8.35;;;;;;;7.90;93.91;103190.00;4943160;29;20052;-82
2023/12/16 00:45:05;;;;;;;18.98;8.35;;;;;;;7.83;94.45;103194.69;4941681;29;20507;-82
2023/12/16 00:47:31;;;;;;;26.67;8.45;;;;;;;7.83;94.32;103189.47;4944113;29;20048;-81
2023/12/16 00:49:59;;;;;;;19.02;8.80;;;;;;;7.72;94.51;103190.91;4944653;29;20083;-80
2023/12/16 00:52:26;;;;;;;21.80;8.73;;;;;;;7.78;94.86;103193.22;4945272;29;20518;-81
2023/12/16 00:54:52;;;;;;;19.80;7.60;;;;;;;7.85;94.78;103181.56;4936208;29;20072;-80
2023/12/16 00:57:19;;;;;;;21.30;8.40;;;;;;;7.82;94.01;103181.72;4943816;29;20047;-80
2023/12/16 00:59:46;;;;;;;18.63;8.75;;;;;;;7.77;94.27;103186.31;4944411;29;20590;-80
2023/12/16 01:02:15;;;;;;;19.40;7.75;;;;;;;7.82;94.19;103198.19;4945285;29;20082;-81
2023/12/16 01:04:41;;;;;;;22.63;8.48;;;;;;;7.79;94.20;103187.94;4944876;29;20107;-81
2023/12/16 01:07:12;;;;;;;17.88;7.90;;;;;;;7.81;94.13;103190.47;4944626;29;20132;-81
2023/12/16 01:09:40;;;;;;;19.45;8.43;;;;;;;7.77;94.29;103179.34;4945261;29;20129;-81
2023/12/16 01:12:09;;;;;;;20.27;10.05;;;;;;;7.81;94.10;103185.25;4944532;29;20052;-80
2023/12/16 01:14:35;;;;;;;20.40;7.75;;;;;;;7.78;94.12;103185.41;4944554;29;20119;-81
2023/12/16 01:17:02;;;;;;;22.30;7.85;;;;;;;7.92;93.73;103198.59;4941697;29;20058;-82
2023/12/16 01:19:29;;;;;;;18.83;8.40;;;;;;;7.89;93.90;103196.97;4942198;29;20055;-80
2023/12/16 01:21:56;;;;;;;17.90;8.23;;;;;;;7.80;94.01;103192.22;4941333;29;20055;-81
2023/12/16 01:24:23;;;;;;;21.45;8.82;;;;;;;7.80;94.23;103199.19;4943229;29;20090;-81
2023/12/16 01:26:50;;;;;;;21.50;8.35;;;;;;;7.88;93.75;103203.13;4941216;29;20103;-80
2023/12/16 01:29:17;;;;;;;28.70;10.60;;;;;;;7.81;94.04;103208.69;4942264;29;20070;-80
2023/12/16 01:31:43;;;;;;;20.95;8.98;;;;;;;7.82;93.58;103208.63;4942543;29;20083;-80
2023/12/16 01:34:10;;;;;;;20.00;8.25;;;;;;;7.91;93.27;103217.75;4941728;29;20127;-80
2023/12/16 01:36:37;;;;;;;24.83;10.18;;;;;;;7.85;93.56;103211.09;4942527;29;20047;-80
2023/12/16 01:39:03;;;;;;;21.33;8.68;;;;;;;7.81;94.11;103208.69;4943053;29;20123;-80
2023/12/16 01:41:31;;;;;;;26.65;9.63;;;;;;;7.76;93.99;103223.72;4949449;29;20205;-80
2023/12/16 01:43:58;;;;;;;20.80;9.70;;;;;;;7.70;94.37;103224.00;4943260;29;20055;-81
2023/12/16 01:46:28;;;;;;;30.17;9.60;;;;;;;7.71;94.67;103226.53;4942233;29;20079;-80
2023/12/16 01:48:55;;;;;;;22.38;8.57;;;;;;;7.68;94.80;103233.66;4935497;29;20105;-81
2023/12/16 01:51:22;;;;;;;27.23;9.27;;;;;;;7.66;94.90;103239.78;4942778;29;20048;-80
2023/12/16 01:53:48;;;;;;;26.88;9.32;;;;;;;7.73;94.91;103237.75;4943243;29;20075;-81
2023/12/16 01:56:15;;;;;;;24.25;9.77;;;;;;;7.66;94.87;103239.78;4946070;29;20079;-81
2023/12/16 01:58:43;;;;;;;21.90;8.73;;;;;;;7.68;95.27;103236.28;4945991;29;20103;-81
2023/12/16 02:01:10;;;;;;;23.80;9.82;;;;;;;7.64;95.26;103236.41;4946754;29;20131;-80
2023/12/16 02:03:37;;;;;;;28.13;9.60;;;;;;;7.71;95.01;103239.56;4953330;29;20082;-80
2023/12/16 02:06:07;;;;;;;25.48;9.00;;;;;;;7.72;94.64;103233.44;4945346;29;20050;-80
2023/12/16 02:08:34;;;;;;;22.50;8.88;;;;;;;7.75;94.83;103242.88;4945258;29;20106;-81
2023/12/16 02:11:00;;;;;;;20.67;9.20;;;;;;;7.75;94.59;103241.13;4946398;29;20099;-81
2023/12/16 02:13:27;;;;;;;23.98;9.35;;;;;;;7.68;94.78;103241.50;4943875;29;20071;-80
2023/12/16 02:15:55;;;;;;;21.70;8.60;;;;;;;7.83;94.23;103241.59;4942361;29;20055;-80
2023/12/16 02:18:21;;;;;;;17.17;8.07;;;;;;;7.74;94.23;103243.81;4941231;29;20358;-80
2023/12/16 02:20:48;;;;;;;23.25;9.05;;;;;;;7.71;93.93;103228.31;4943107;29;20094;-79
2023/12/16 02:23:17;;;;;;;16.70;8.48;;;;;;;7.59;94.29;103227.13;4943470;29;20501;-80
2023/12/16 02:25:44;;;;;;;21.13;9.50;;;;;;;7.61;94.40;103231.34;4943404;29;20691;-80
2023/12/16 02:28:11;;;;;;;21.02;8.90;;;;;;;7.61;94.01;103230.50;4945463;29;20151;-80
2023/12/16 02:30:37;;;;;;;18.90;8.80;;;;;;;7.65;94.23;103221.63;4945010;29;20051;-80
2023/12/16 02:33:04;;;;;;;22.02;8.93;;;;;;;7.66;94.08;103226.75;4946819;29;20485;-80
2023/12/16 02:35:31;;;;;;;25.50;8.70;;;;;;;7.58;94.17;103221.06;4947911;29;20487;-80
2023/12/16 02:37:57;;;;;;;20.23;8.88;;;;;;;7.58;93.95;103228.88;4940520;29;20090;-79
2023/12/16 02:40:25;;;;;;;20.98;8.88;;;;;;;7.56;94.17;103222.91;4941288;29;20086;-80
2023/12/16 02:42:52;;;;;;;23.75;8.05;;;;;;;7.55;93.85;103223.00;4941968;29;20088;-81
2023/12/16 02:45:19;;;;;;;22.52;8.77;;;;;;;7.61;93.50;103217.47;4943667;29;20055;-80
2023/12/16 02:47:45;;;;;;;17.30;7.82;;;;;;;7.65;93.30;103219.03;4942909;29;20052;-80
2023/12/16 02:50:12;;;;;;;18.10;8.52;;;;;;;7.57;93.20;103206.34;4941178;29;20139;-80
2023/12/16 02:52:39;;;;;;;17.40;7.55;;;;;;;7.69;92.99;103217.13;4940180;29;20126;-80
2023/12/16 02:55:06;;;;;;;20.08;8.30;;;;;;;7.55;92.94;103205.63;4939546;29;20043;-80
2023/12/16 02:57:34;;;;;;;20.98;8.25;;;;;;;7.52;92.87;103205.75;4938748;29;20440;-81
2023/12/16 03:00:01;;;;;;;21.50;9.10;;;;;;;7.57;92.99;103208.97;4938944;29;20062;-80
2023/12/16 03:02:27;;;;;;;19.77;7.78;;;;;;;7.57;92.36;103206.34;4938385;29;20059;-81
2023/12/16 03:04:54;;;;;;;19.15;8.38;;;;;;;7.58;92.32;103208.03;4937594;29;20087;-81
2023/12/16 03:07:20;;;;;;;18.52;7.45;;;;;;;7.59;92.08;103206.28;4936384;29;20099;-81
2023/12/16 03:09:47;;;;;;;17.63;7.82;;;;;;;7.64;91.76;103212.13;4939895;29;20106;-81
2023/12/16 03:12:15;;;;;;;14.82;8.02;;;;;;;7.60;91.65;103207.97;4953299;29;20062;-81
2023/12/16 03:14:43;;;;;;;15.95;8.15;;;;;;;7.60;91.05;103193.19;4945956;29;20130;-81
2023/12/16 03:17:10;;;;;;;16.40;7.35;;;;;;;7.62;90.81;103191.34;4944648;29;20079;-80
2023/12/16 03:19:36;;;;;;;17.95;8.25;;;;;;;7.69;90.52;103196.25;4950875;29;20054;-81
2023/12/16 03:22:03;;;;;;;18.85;7.35;;;;;;;7.66;90.22;103194.66;4947464;29;20051;-80
2023/12/16 03:24:30;;;;;;;18.92;7.18;;;;;;;7.64;90.21;103202.53;4946999;29;20111;-81
2023/12/16 03:26:58;;;;;;;18.70;7.35;;;;;;;7.67;90.03;103198.94;4946469;29;20134;-80
2023/12/16 03:29:24;;;;;;;15.52;8.10;;;;;;;7.58;90.19;103191.56;4949919;29;20074;-80
2023/12/16 03:31:53;;;;;;;17.77;7.50;;;;;;;7.66;90.13;103192.88;4943884;28;20111;-81
2023/12/16 03:34:20;;;;;;;16.00;7.18;;;;;;;7.55;89.82;103179.56;4944757;29;20072;-79
2023/12/16 03:36:46;;;;;;;16.20;7.03;;;;;;;7.61;89.53;103173.19;4943749;29;20127;-80
2023/12/16 03:39:13;;;;;;;18.88;7.75;;;;;;;7.61;89.38;103178.38;4945553;29;20055;-80
2023/12/16 03:41:40;;;;;;;17.00;7.07;;;;;;;7.65;89.14;103177.31;4949583;29;20044;-81
2023/12/16 03:44:06;;;;;;;15.70;6.30;;;;;;;7.58;89.46;103171.56;4945024;29;20134;-80
2023/12/16 03:46:33;;;;;;;15.82;6.90;;;;;;;7.56;89.22;103176.00;4942575;29;20090;-79
2023/12/16 03:49:01;;;;;;;13.98;6.70;;;;;;;7.71;88.84;103174.44;4941613;29;20553;-79
2023/12/16 03:51:27;;;;;;;17.02;7.10;;;;;;;7.66;88.47;103165.97;4940809;29;20111;-81
2023/12/16 03:53:54;;;;;;;14.00;6.90;;;;;;;7.60;89.06;103176.69;4944131;29;20123;-81
2023/12/16 03:56:23;;;;;;;15.95;6.57;;;;;;;7.55;89.44;103179.56;4945280;29;20067;-81
2023/12/16 03:58:50;;;;;;;20.75;7.55;;;;;;;7.54;89.66;103183.09;4943780;29;20149;-81
2023/12/16 04:01:16;;;;;;;15.73;6.68;;;;;;;7.50;90.07;103184.16;4944028;29;20546;-81
2023/12/16 04:03:43;;;;;;;16.67;7.53;;;;;;;7.47;90.26;103186.06;4946748;29;20107;-80
2023/12/16 04:06:14;;;;;;;14.32;7.00;;;;;;;7.54;90.12;103180.47;4945237;29;20131;-80
2023/12/16 04:08:42;;;;;;;15.85;7.97;;;;;;;7.47;90.26;103171.28;4946242;29;20136;-80
2023/12/16 04:11:09;;;;;;;20.20;7.22;;;;;;;7.43;90.12;103174.94;4952620;29;20052;-79
2023/12/16 04:13:36;;;;;;;13.80;6.88;;;;;;;7.54;90.33;103172.66;4951700;29;20062;-80
2023/12/16 04:16:03;;;;;;;19.63;6.88;;;;;;;7.54;90.47;103174.44;4949815;29;20499;-80
2023/12/16 04:18:30;;;;;;;16.80;7.63;;;;;;;7.54;90.64;103172.66;4950769;29;20095;-81
2023/12/16 04:20:57;;;;;;;16.55;7.15;;;;;;;7.35;90.79;103174.44;4947623;29;20055;-80
2023/12/16 04:23:26;;;;;;;13.48;7.10;;;;;;;7.44;90.67;103179.22;4949831;29;20052;-81
2023/12/16 04:25:52;;;;;;;15.98;7.07;;;;;;;7.45;90.46;103170.50;4936221;29;20055;-81
2023/12/16 04:28:19;;;;;;;15.05;7.05;;;;;;;7.53;90.03;103170.97;4943054;29;20426;-82
2023/12/16 04:30:49;;;;;;;15.75;8.07;;;;;;;7.57;89.56;103179.47;4946600;29;20058;-81
2023/12/16 04:33:15;;;;;;;14.85;7.07;;;;;;;7.44;89.52;103175.78;4948050;29;20083;-81
2023/12/16 04:35:42;;;;;;;18.90;7.07;;;;;;;7.47;89.69;103184.28;4946398;29;20487;-80
2023/12/16 04:38:10;;;;;;;17.38;6.97;;;;;;;7.50;89.75;103181.53;4946140;29;20075;-80
2023/12/16 04:40:37;;;;;;;13.75;6.57;;;;;;;7.57;89.22;103187.28;4947307;29;20143;-81
2023/12/16 04:43:04;;;;;;;18.70;6.55;;;;;;;7.48;89.18;103180.78;4941001;29;20130;-78
2023/12/16 04:45:31;;;;;;;19.25;7.13;;;;;;;7.55;89.58;103196.97;4936379;29;20139;-79
2023/12/16 04:47:57;;;;;;;15.20;6.68;;;;;;;7.48;89.46;103192.94;4936702;29;20142;-77
2023/12/16 04:50:24;;;;;;;18.10;6.78;;;;;;;7.49;89.41;103192.88;4943179;29;20082;-80
2023/12/16 04:52:50;;;;;;;12.35;7.00;;;;;;;7.53;89.61;103197.03;4948183;29;20083;-80
2023/12/16 04:55:17;;;;;;;18.55;7.30;;;;;;;7.37;89.92;103188.25;4943571;29;20079;-80
2023/12/16 04:57:45;;;;;;;16.58;6.35;;;;;;;7.40;89.49;103182.06;4949531;29;20051;-80
2023/12/16 05:00:15;;;;;;;15.05;6.80;;;;;;;7.42;89.35;103181.06;4951919;29;20058;-80
2023/12/16 05:02:42;;;;;;;20.15;6.60;;;;;;;7.36;89.09;103183.94;4949893;29;20075;-80
2023/12/16 05:05:09;;;;;;;14.10;6.60;;;;;;;7.40;89.16;103180.28;4951854;29;20058;-81
2023/12/16 05:07:37;;;;;;;19.10;6.50;;;;;;;7.41;88.97;103191.56;4950901;29;20051;-80
2023/12/16 05:10:10;;;;;;;16.10;6.30;;;;;;;7.40;89.01;103174.25;4949009;29;20134;-80
2023/12/16 05:12:37;;;;;;;14.18;6.18;;;;;;;7.49;88.97;103184.22;4943766;29;20069;-81
2023/12/16 05:15:06;;;;;;;17.05;6.43;;;;;;;7.46;88.92;103184.38;4943618;29;20079;-82
2023/12/16 05:17:32;;;;;;;15.65;6.30;;;;;;;7.44;88.77;103175.78;4941906;29;20071;-81
2023/12/16 05:19:59;;;;;;;18.30;6.53;;;;;;;7.42;88.66;103183.66;4942625;29;20452;-80
2023/12/16 05:22:25;;;;;;;18.52;6.93;;;;;;;7.52;88.63;103194.50;4942271;29;20156;-82
2023/12/16 05:24:52;;;;;;;18.05;6.35;;;;;;;7.42;88.58;103199.28;4941265;29;20048;-81
2023/12/16 05:27:19;;;;;;;13.80;6.00;;;;;;;7.47;88.43;103188.66;4942298;29;20055;-80
2023/12/16 05:29:45;;;;;;;14.32;5.72;;;;;;;7.43;88.58;103190.56;4943807;28;20083;-81
2023/12/16 05:32:13;;;;;;;14.30;5.80;;;;;;;7.52;88.71;103187.53;4942427;29;20075;-81
2023/12/16 05:34:40;;;;;;;16.52;5.97;;;;;;;7.42;88.53;103181.06;4943540;29;20102;-81
2023/12/16 05:37:06;;;;;;;12.18;5.97;;;;;;;7.42;88.65;103180.22;4941979;29;20115;-80
2023/12/16 05:39:33;;;;;;;17.60;6.07;;;;;;;7.40;88.54;103185.50;4943644;29;20048;-80
2023/12/16 05:41:59;;;;;;;13.43;5.50;;;;;;;7.43;88.67;103182.75;4942196;29;20095;-80
2023/12/16 05:44:28;;;;;;;14.48;6.18;;;;;;;7.43;88.57;103176.69;4943875;29;20090;-81
2023/12/16 05:46:55;;;;;;;14.90;5.68;;;;;;;7.39;89.01;103177.75;4935356;29;20079;-80
2023/12/16 05:49:23;;;;;;;18.25;6.18;;;;;;;7.43;88.80;103179.31;4942181;29;20075;-80
2023/12/16 05:51:49;;;;;;;13.15;5.65;;;;;;;7.35;89.27;103190.09;4940834;29;20159;-80
2023/12/16 05:54:16;;;;;;;13.20;5.78;;;;;;;7.35;89.11;103191.84;4941109;29;20074;-80
2023/12/16 05:56:43;;;;;;;15.15;6.07;;;;;;;7.38;89.08;103195.16;4940666;29;20062;-78
2023/12/16 05:59:10;;;;;;;15.65;5.25;;;;;;;7.43;88.87;103201.00;4940195;29;20147;-80
2023/12/16 06:01:36;;;;;;;17.33;6.05;;;;;;;7.33;88.71;103197.13;4940320;29;20075;-80
2023/12/16 06:04:03;;;;;;;15.05;5.53;;;;;;;7.43;88.68;103201.00;4939922;29;20514;-80
2023/12/16 06:06:31;;;;;;;18.38;5.95;;;;;;;7.47;88.67;103196.47;4939578;29;20108;-80
2023/12/16 06:08:57;;;;;;;11.38;5.10;;;;;;;7.48;88.50;103193.81;4940433;29;20111;-79
2023/12/16 06:11:24;;;;;;;12.35;5.43;;;;;;;7.46;88.48;103194.78;4940890;29;20115;-80
2023/12/16 06:13:51;;;;;;;14.73;5.30;;;;;;;7.54;88.34;103195.25;4940601;29;20499;-80
2023/12/16 06:16:18;;;;;;;14.70;7.18;;;;;;;7.59;88.05;103199.31;4934561;29;20043;-80
2023/12/16 06:18:46;;;;;;;12.77;5.22;;;;;;;7.52;87.84;103195.34;4939499;29;20130;-80
2023/12/16 06:21:13;;;;;;;16.23;6.20;;;;;;;7.52;88.07;103194.50;4938771;29;20087;-80
2023/12/16 06:23:41;;;;;;;10.10;5.32;;;;;;;7.49;88.18;103192.88;4938414;29;20142;-80
2023/12/16 06:26:08;;;;;;;14.00;5.38;;;;;;;7.43;88.34;103194.94;4938187;29;20083;-80
2023/12/16 06:28:35;;;;;;;13.80;5.20;;;;;;;7.41;88.59;103210.63;4939993;29;20111;-80
2023/12/16 06:31:01;;;;;;;17.13;5.50;;;;;;;7.45;88.63;103198.31;4939762;29;20048;-80
2023/12/16 06:33:28;;;;;;;12.85;4.95;;;;;;;7.37;88.74;103210.84;4940320;29;20115;-80
2023/12/16 06:35:55;;;;;;;13.07;5.05;;;;;;;7.42;88.78;103214.09;4938387;29;20939;-80
2023/12/16 06:38:22;;;;;;;13.68;5.28;;;;;;;7.45;88.75;103211.34;4939268;29;20138;-80
2023/12/16 06:40:50;;;;;;;15.98;7.05;;;;;;;7.44;88.39;103200.06;4940025;29;20478;-80
2023/12/16 06:43:17;;;;;;;11.95;5.40;;;;;;;7.40;88.84;103197.69;4947397;29;20094;-79
2023/12/16 06:45:44;;;;;;;13.80;5.13;;;;;;;7.46;88.79;103205.22;4946246;29;20525;-79
2023/12/16 06:48:11;;;;;;;12.15;5.35;;;;;;;7.46;89.05;103210.41;4942871;29;20059;-79
2023/12/16 06:50:37;;;;;;;11.15;5.07;;;;;;;7.47;89.16;103212.09;4941886;29;20052;-79
2023/12/16 06:53:04;;;;;;;16.27;6.00;;;;;;;7.40;89.13;103211.56;4939442;28;20071;-81
2023/12/16 06:55:30;;;;;;;15.27;6.32;;;;;;;7.42;89.21;103214.09;4942923;29;20048;-79
2023/12/16 06:57:58;;;;;;;13.13;5.38;;;;;;;7.48;89.53;103211.19;4943934;29;20083;-79
2023/12/16 07:00:25;;;;;;;16.45;5.78;;;;;;;7.53;89.25;103206.59;4945033;29;20115;-80
2023/12/16 07:02:51;;;;;;;18.83;5.22;;;;;;;7.39;89.46;103206.41;4943345;29;20062;-80
2023/12/16 07:05:18;;;;;;;9.05;5.25;;;;;;;7.36;89.41;103210.00;4943992;29;20086;-80
2023/12/16 07:07:45;;;;;;;13.05;5.18;;;;;;;7.48;89.38;103206.81;4939939;29;20127;-81
2023/12/16 07:10:11;;;;;;;16.67;5.82;;;;;;;7.42;89.61;103212.31;4947749;29;20071;-81
2023/12/16 07:12:38;;;;;;;11.60;5.55;;;;;;;7.40;89.47;103215.91;4942912;29;20118;-81
2023/12/16 07:15:08;;;;;;;17.58;5.53;;;;;;;7.46;89.67;103221.69;4950117;29;20055;-81
2023/12/16 07:17:34;;;;;;;13.75;4.68;;;;;;;7.46;89.68;103221.69;4944242;29;20086;-81
2023/12/16 07:20:01;;;;;;;10.38;5.13;;;;;;;7.37;89.75;103237.75;4942630;29;20051;-80
2023/12/16 07:22:29;;;;;;;17.63;9.43;;;;;;;7.44;89.94;103241.75;4942128;29;20114;-80
2023/12/16 07:24:56;;;;;;;12.18;6.05;;;;;;;7.43;89.86;103240.06;4942708;29;20055;-81
2023/12/16 07:27:23;;;;;;;20.05;5.90;;;;;;;7.40;89.92;103236.75;4942981;29;20055;-81
2023/12/16 07:29:50;;;;;;;14.27;5.70;;;;;;;7.41;89.96;103249.72;4942867;29;20114;-81
2023/12/16 07:32:18;;;;;;;15.95;5.88;;;;;;;7.42;90.09;103243.59;4943179;29;20087;-81
2023/12/16 07:34:45;;;;;;;13.52;5.20;;;;;;;7.37;89.86;103247.31;4942952;29;20116;-80
2023/12/16 07:37:12;;;;;;;18.67;6.45;;;;;;;7.41;89.92;103247.09;4941033;29;20107;-81
2023/12/16 07:39:38;;;;;;;12.75;6.15;;;;;;;7.44;89.93;103249.56;4942744;29;20143;-81
2023/12/16 07:42:05;;;;;;;14.40;6.35;;;;;;;7.28;89.82;103241.63;4942181;29;20056;-80
2023/12/16 07:44:32;;;;;;;18.95;6.43;;;;;;;7.29;90.15;103250.28;4941565;29;20052;-81
2023/12/16 07:47:01;;;;;;;21.85;7.65;;;;;;;7.05;90.63;103246.19;4941604;29;20059;-80
2023/12/16 07:49:29;;;;;;;21.17;6.93;;;;;;;7.03;91.24;103253.22;4943963;29;20487;-81
2023/12/16 07:51:57;;;;;;;15.77;5.80;;;;;;;7.05;91.38;103256.63;4934234;29;20083;-79
2023/12/16 07:54:24;;;;;;;18.15;5.93;;;;;;;7.01;91.59;103265.47;4941331;29;20059;-79
2023/12/16 07:56:50;;;;;;;11.20;5.07;;;;;;;7.04;91.55;103260.97;4941109;29;20138;-79
2023/12/16 07:59:17;;;;;;;13.18;5.90;;;;;;;7.05;91.76;103256.63;4941934;29;20139;-80
2023/12/16 08:01:49;;;;;;;19.02;5.65;;;;;;;7.08;92.11;103259.94;4943071;29;20103;-79
2023/12/16 08:04:15;;;;;;;17.17;5.80;;;;;;;7.02;92.36;103262.81;4948798;29;20695;-80
2023/12/16 08:06:46;;;;;;;10.45;5.25;;;;;;;7.01;92.15;103270.69;4942301;29;20107;-80
2023/12/16 08:09:13;;;;;;;18.23;6.18;;;;;;;6.92;92.73;103267.56;4942387;29;20052;-80
2023/12/16 08:11:39;;;;;;;15.32;5.72;;;;;;;6.92;93.00;103274.53;4943389;29;20523;-80
2023/12/16 08:14:07;;;;;;;13.48;6.65;;;;;;;6.98;92.91;103266.44;4942302;29;20111;-80
2023/12/16 08:16:34;;;;;;;16.33;6.03;;;;;;;6.93;92.87;103266.66;4942481;29;20051;-81
2023/12/16 08:19:00;;;;;;;15.00;5.78;;;;;;;7.01;92.77;103268.94;4942820;29;20110;-80
2023/12/16 08:21:27;;;;;;;16.40;6.18;;;;;;;6.98;92.89;103267.31;4942379;29;20082;-80
2023/12/16 08:23:55;;;;;;;15.68;5.70;;;;;;;7.03;92.67;103274.06;4947677;29;20083;-80
2023/12/16 08:26:21;;;;;;;17.70;5.40;;;;;;;7.03;92.71;103268.84;4951912;29;20071;-80
2023/12/16 08:28:50;;;;;;;13.27;6.03;;;;;;;7.04;92.50;103271.41;4952145;29;20178;-80
2023/12/16 08:31:16;;;;;;;18.92;6.43;;;;;;;7.05;92.63;103264.44;4951491;29;20115;-81
2023/12/16 08:33:43;;;;;;;17.08;5.35;;;;;;;6.97;92.77;103254.34;4943117;29;20070;-80
2023/12/16 08:36:09;;;;;;;17.25;5.60;;;;;;;7.03;92.69;103269.69;4949826;29;20086;-79
2023/12/16 08:38:36;;;;;;;16.77;5.80;;;;;;;7.04;92.56;103260.13;4942806;29;20047;-82
2023/12/16 08:41:07;;;;;;;14.00;5.38;;;;;;;7.06;92.73;103266.13;4943675;29;20115;-80
2023/12/16 08:43:33;;;;;;;18.70;5.95;;;;;;;7.19;92.43;103268.06;4942433;29;20099;-81
2023/12/16 08:46:00;;;;;;;19.52;8.00;;;;;;;7.22;92.34;103283.56;4949869;29;20133;-80
2023/12/16 08:48:27;;;;;;;13.02;5.80;;;;;;;7.25;92.39;103286.03;4942532;29;20048;-80
2023/12/16 08:50:56;;;;;;;17.20;5.40;;;;;;;7.29;92.07;103297.16;4934332;29;20047;-79
2023/12/16 08:53:23;;;;;;;14.43;5.50;;;;;;;7.33;91.88;103296.09;4942311;29;20055;-80
2023/12/16 08:55:50;;;;;;;16.23;5.45;;;;;;;7.42;91.58;103290.47;4941378;29;20082;-80
2023/12/16 08:58:18;;;;;;;14.43;5.50;;;;;;;7.49;91.52;103293.66;4946268;29;20525;-80
2023/12/16 09:00:45;;;;;;;13.65;5.32;;;;;;;7.53;91.65;103290.81;4942773;29;20071;-81
2023/12/16 09:03:13;;;;;;;18.50;5.45;;;;;;;7.70;91.42;103302.19;4941370;29;20418;-80
2023/12/16 09:05:40;;;;;;;11.32;5.63;;;;;;;7.64;91.35;103298.13;4940919;29;20060;-80
2023/12/16 09:08:06;;;;;;;14.63;5.65;;;;;;;7.79;91.53;103300.00;4939127;29;20074;-81
2023/12/16 09:10:33;;;;;;;14.80;6.43;;;;;;;7.87;91.15;103304.88;4940952;29;20139;-81
2023/12/16 09:13:00;;;;;;;15.45;6.63;;;;;;;7.95;90.80;103307.94;4939547;29;20051;-81
2023/12/16 09:15:28;;;;;;;20.10;6.65;;;;;;;8.11;90.56;103314.09;4939534;29;20518;-80
2023/12/16 09:17:54;;;;;;;15.05;5.65;;;;;;;8.32;89.72;103313.09;4932379;29;20522;-81
2023/12/16 09:20:21;;;;;;;14.18;5.50;;;;;;;8.41;88.66;103305.72;4940755;29;20159;-82
2023/12/16 09:22:48;;;;;;;14.02;4.78;;;;;;;8.52;87.58;103300.78;4940515;29;20091;-82
2023/12/16 09:25:14;;;;;;;12.10;5.30;;;;;;;8.56;87.65;103304.94;4941630;29;20075;-82
2023/12/16 09:27:43;;;;;;;11.95;5.10;;;;;;;8.79;86.99;103302.00;4942537;29;20083;-83
2023/12/16 09:30:10;;;;;;;14.45;4.95;;;;;;;9.06;85.86;103294.47;4947571;29;20047;-83
2023/12/16 09:32:43;;;;;;;13.30;5.28;;;;;;;9.07;85.55;103295.31;4939972;29;20057;-82
2023/12/16 09:35:10;;;;;;;11.82;4.93;;;;;;;9.04;84.70;103295.47;4939202;29;20082;-82
2023/12/16 09:37:36;;;;;;;9.88;4.40;;;;;;;9.05;84.67;103297.16;4939294;29;20078;-82
2023/12/16 09:40:03;;;;;;;10.20;4.78;;;;;;;8.97;84.70;103295.81;4940171;29;20062;-82
2023/12/16 09:42:30;;;;;;;12.80;5.10;;;;;;;8.91;84.59;103300.53;4938798;29;20111;-82
2023/12/16 09:44:58;;;;;;;15.45;6.47;;;;;;;8.82;84.77;103307.06;4939059;29;20072;-81
2023/12/16 09:47:25;;;;;;;11.90;4.97;;;;;;;8.86;84.65;103300.75;4940554;29;20045;-84
2023/12/16 09:49:57;;;;;;;13.38;5.30;;;;;;;8.88;84.39;103295.47;4938129;29;20071;-83
2023/12/16 09:52:24;;;;;;;14.45;4.93;;;;;;;8.83;84.72;103305.28;4938923;29;20059;-83
2023/12/16 09:54:51;;;;;;;16.40;4.72;;;;;;;8.79;84.65;103307.22;4935500;29;20054;-82
2023/12/16 09:57:20;;;;;;;10.50;5.00;;;;;;;8.96;84.25;103299.38;4938558;29;20131;-82
2023/12/16 09:59:47;;;;;;;15.82;5.05;;;;;;;8.95;84.56;103296.84;4945952;29;20074;-81
2023/12/16 10:02:23;;;;;;;14.93;6.30;;;;;;;9.14;84.29;103296.69;4938224;29;20138;-82
2023/12/16 10:04:51;;;;;;;13.35;4.60;;;;;;;9.08;83.96;103287.41;4939960;29;20483;-82
2023/12/16 10:07:19;;;;;;;19.20;5.03;;;;;;;9.17;83.74;103291.28;4942989;29;20130;-82
2023/12/16 10:09:46;;;;;;;19.75;6.97;;;;;;;9.12;83.72;103277.63;4941504;28;20134;-83
2023/12/16 10:12:16;;;;;;;14.50;4.72;;;;;;;9.01;84.01;103282.56;4939888;29;20158;-82
2023/12/16 10:14:46;;;;;;;16.83;6.97;;;;;;;9.16;84.34;103289.59;4932198;29;20075;-82
2023/12/16 10:17:14;;;;;;;12.90;5.05;;;;;;;9.16;84.08;103287.84;4943168;29;20052;-82
2023/12/16 10:19:43;;;;;;;15.25;4.82;;;;;;;9.24;84.67;103301.34;4944184;29;20507;-82
2023/12/16 10:22:09;;;;;;;13.18;4.63;;;;;;;9.03;85.41;103297.25;4944008;29;20130;-82
2023/12/16 10:24:37;;;;;;;10.13;5.30;;;;;;;9.21;85.40;103298.03;4935995;29;20131;-83
2023/12/16 10:27:05;;;;;;;13.20;4.60;;;;;;;9.26;85.39;103306.47;4943420;29;20075;-82
2023/12/16 10:29:33;;;;;;;15.90;6.03;;;;;;;9.20;85.90;103312.03;4943967;29;20086;-82
2023/12/16 10:32:00;;;;;;;11.93;4.88;;;;;;;9.09;86.41;103296.06;4944095;29;20433;-81
2023/12/16 10:34:28;;;;;;;14.63;5.28;;;;;;;9.24;86.33;103303.09;4943861;29;20146;-82
2023/12/16 10:37:03;;;;;;;14.95;6.07;;;;;;;9.32;86.15;103296.56;4942433;29;20056;-83
2023/12/16 10:39:30;;;;;;;13.30;5.63;;;;;;;9.36;86.40;103296.38;4940589;29;20155;-82
2023/12/16 10:41:58;;;;;;;16.45;6.38;;;;;;;9.44;86.49;103284.59;4943821;29;20083;-83
2023/12/16 10:44:25;;;;;;;12.35;5.38;;;;;;;9.49;85.83;103287.75;4944137;29;20471;-83
2023/12/16 10:46:54;;;;;;;13.20;4.90;;;;;;;9.32;85.79;103286.09;4948340;29;20139;-82
2023/12/16 10:49:27;;;;;;;14.07;5.10;;;;;;;9.58;85.70;103282.03;4943674;29;20474;-82
2023/12/16 10:52:03;;;;;;;11.30;4.28;;;;;;;9.71;85.00;103271.75;4936655;29;20052;-82
2023/12/16 10:54:34;;;;;;;12.55;4.50;;;;;;;9.68;85.01;103276.31;4943308;29;20138;-82
2023/12/16 10:57:13;;;;;;;13.30;4.45;;;;;;;9.73;85.09;103269.88;4947235;29;20079;-82
2023/12/16 10:59:55;;;;;;;12.57;4.82;;;;;;;9.96;84.79;103273.81;4943922;29;20493;-83
2023/12/16 11:02:24;;;;;;;11.98;4.35;;;;;;;9.99;84.25;103273.63;4943595;29;20051;-83
2023/12/16 11:04:57;;;;;;;11.60;4.53;;;;;;;10.24;83.96;103273.09;4943347;29;20062;-83
2023/12/16 11:07:31;;;;;;;13.83;4.70;;;;;;;10.41;83.29;103248.53;4945187;29;20048;-83
2023/12/16 11:09:58;;;;;;;14.88;4.72;;;;;;;10.56;82.63;103239.75;4944137;29;20138;-82
2023/12/16 11:12:26;;;;;;;23.00;7.28;;;;;;;10.55;82.37;103227.59;4943021;29;20134;-82
2023/12/16 11:14:55;;;;;;;17.17;5.38;;;;;;;10.80;81.93;103240.91;4947292;29;20063;-84
2023/12/16 11:17:29;;;;;;;14.65;4.68;;;;;;;10.67;81.36;103226.88;4946538;29;20110;-83
2023/12/16 11:20:00;;;;;;;19.35;8.10;;;;;;;10.73;81.59;103221.25;4935911;29;20067;-83
2023/12/16 11:22:27;;;;;;;17.05;6.53;;;;;;;10.77;81.38;103220.13;4942480;29;20119;-83
2023/12/16 11:24:57;;;;;;;16.52;6.60;;;;;;;10.91;81.29;103227.97;4942414;29;20111;-83